Airfield :
LOGIN :

Register | Disclaimer

   EN    FR    IT 

 










Legend :    VFR   Marginal VFR   IFR   Intensive IFR   Very Intensive IFR
Visi :
Ceiling :
>= 8 km
>= 3000ft
5 to 8 km
1000 to 3000 ft
1500m to 5 km
500 to 1000 ft
800 to 1500m
200 to 500 ft
< 800m
< 200 ft
Symbols :   Thunderstorms  Fog  Heavy snow  Heavy precipitations  Wind > 20 kt
SIGMETs :     Misc.  Thunderstorms  Icing  Turbulence  Mountain Waves  Volcanic Ashes






- Airport Elevation : 408 ft
- IATA code : FKB


EDSB - Karlsruhe Baden Baden

CURRENT METAR :
  • 051950Z 02010KT 9000 SCT008 OVC018 05/03 Q1036

EXPIRED METARs :
  • 051920Z 03008KT 9999 FEW007 SCT010 OVC012 05/04 Q1036
  • 051850Z 02008KT 9999 -RA FEW007 OVC022 05/04 Q1035
  • 051820Z 01006KT 330V040 8000 -RA FEW011 BKN019 OVC023 05/04 Q1035 RERA
  • 051750Z 01005KT 6000 RA FEW011 BKN016 OVC028 05/04 Q1035
  • 051720Z VRB02KT 6000 RA FEW014 BKN019 OVC023 05/04 Q1035

TAF TAF EDSB
Valid from the 05 at 18:00 until the 06 at 18:00 UTC


051700Z 0518/0618 03007KT 9999 SCT007 BKN020
TEMPO 0518/0610 4000 -RADZ BR BKN007



MET'MAP, your aeronautical weather chart ! - Copyright ORBIFLY December 2007 - Disclaimer

ORBIFLY MET'MAP TEAM :

Programming & Development : Alexandra Zaïnal
Original concept : Baudouin d'Aumeries
Technical & hardware support : Manuel Goepfert
Assistance : Marc-Olivier Méhu




SOURCES & CREDITS :

   NOAA